Terminal Aerodrome Forecast
Issued by NWS Wilmington, OH

Current Version | Previous Version | Text Only | Print | Product List | Glossary On
Versions: 1 2 3 4 5 6 7 8 9 10 11 12 13 14 15 16 17 18 19 20 21 22 23 24 25
000 FTUS41 KILN 202300 TAFCVG TAF KCVG 202334Z 2100/2206 VRB03KT P6SM OVC015 FM210200 10003KT P6SM OVC025 FM210800 11004KT P6SM BKN060 FM211300 12005KT P6SM SCT250=

USA.gov is the U.S. government's official web portal to all federal, state and local government web resources and services.